sensor_id;sensor_type;location;lat;lon;timestamp;temperature;humidity
20459;DHT22;10388;52.314;7.938;2022-10-22T00:03:26;11.40;99.90
20459;DHT22;10388;52.314;7.938;2022-10-22T00:06:29;11.40;99.90
20459;DHT22;10388;52.314;7.938;2022-10-22T00:09:48;11.40;99.90
20459;DHT22;10388;52.314;7.938;2022-10-22T00:12:43;11.40;99.90
20459;DHT22;10388;52.314;7.938;2022-10-22T00:15:21;11.40;99.90
20459;DHT22;10388;52.314;7.938;2022-10-22T00:18:05;11.50;99.90
20459;DHT22;10388;52.314;7.938;2022-10-22T00:20:56;11.50;99.90
20459;DHT22;10388;52.314;7.938;2022-10-22T00:27:17;11.60;99.90
20459;DHT22;10388;52.314;7.938;2022-10-22T00:34:13;11.70;99.90
20459;DHT22;10388;52.314;7.938;2022-10-22T00:40:14;12.00;99.90
20459;DHT22;10388;52.314;7.938;2022-10-22T00:49:20;12.10;99.90
20459;DHT22;10388;52.314;7.938;2022-10-22T00:52:46;12.10;99.90
20459;DHT22;10388;52.314;7.938;2022-10-22T00:55:58;12.10;99.90
20459;DHT22;10388;52.314;7.938;2022-10-22T00:58:57;12.10;99.90
20459;DHT22;10388;52.314;7.938;2022-10-22T01:05:10;12.10;99.90
20459;DHT22;10388;52.314;7.938;2022-10-22T01:08:13;12.10;99.90
20459;DHT22;10388;52.314;7.938;2022-10-22T01:14:24;12.10;99.90
20459;DHT22;10388;52.314;7.938;2022-10-22T01:20:49;12.00;99.90
20459;DHT22;10388;52.314;7.938;2022-10-22T01:31:19;12.00;99.90
20459;DHT22;10388;52.314;7.938;2022-10-22T01:34:25;12.00;99.90
20459;DHT22;10388;52.314;7.938;2022-10-22T01:37:31;12.00;99.90
20459;DHT22;10388;52.314;7.938;2022-10-22T01:40:38;12.00;99.90
20459;DHT22;10388;52.314;7.938;2022-10-22T01:43:19;12.00;99.90
20459;DHT22;10388;52.314;7.938;2022-10-22T01:49:44;11.90;99.90
20459;DHT22;10388;52.314;7.938;2022-10-22T02:03:12;11.80;99.90
20459;DHT22;10388;52.314;7.938;2022-10-22T02:06:20;11.70;99.90
20459;DHT22;10388;52.314;7.938;2022-10-22T02:09:20;11.70;99.90
20459;DHT22;10388;52.314;7.938;2022-10-22T02:12:03;11.70;99.90
20459;DHT22;10388;52.314;7.938;2022-10-22T02:20:51;11.60;99.90
20459;DHT22;10388;52.314;7.938;2022-10-22T02:23:31;11.60;99.90
20459;DHT22;10388;52.314;7.938;2022-10-22T02:33:34;11.50;99.90
20459;DHT22;10388;52.314;7.938;2022-10-22T02:36:49;11.50;99.90
20459;DHT22;10388;52.314;7.938;2022-10-22T02:39:43;11.50;99.90
20459;DHT22;10388;52.314;7.938;2022-10-22T02:46:21;11.30;99.90
20459;DHT22;10388;52.314;7.938;2022-10-22T02:49:41;11.40;99.90
20459;DHT22;10388;52.314;7.938;2022-10-22T02:55:42;11.30;99.90
20459;DHT22;10388;52.314;7.938;2022-10-22T02:58:43;11.30;99.90
20459;DHT22;10388;52.314;7.938;2022-10-22T03:04:18;11.20;99.90
20459;DHT22;10388;52.314;7.938;2022-10-22T03:10:27;11.20;99.90
20459;DHT22;10388;52.314;7.938;2022-10-22T03:13:26;11.20;99.90
20459;DHT22;10388;52.314;7.938;2022-10-22T03:16:39;11.20;99.90
20459;DHT22;10388;52.314;7.938;2022-10-22T03:19:47;11.20;99.90
20459;DHT22;10388;52.314;7.938;2022-10-22T03:23:00;11.10;99.90
20459;DHT22;10388;52.314;7.938;2022-10-22T03:32:52;10.90;99.90
20459;DHT22;10388;52.314;7.938;2022-10-22T03:35:58;10.90;99.90
20459;DHT22;10388;52.314;7.938;2022-10-22T03:38:53;10.80;99.90
20459;DHT22;10388;52.314;7.938;2022-10-22T03:41:49;10.80;99.90
20459;DHT22;10388;52.314;7.938;2022-10-22T03:44:39;10.70;99.90
20459;DHT22;10388;52.314;7.938;2022-10-22T03:47:49;10.70;99.90
20459;DHT22;10388;52.314;7.938;2022-10-22T03:53:55;10.60;99.90
20459;DHT22;10388;52.314;7.938;2022-10-22T03:56:42;10.50;99.90
20459;DHT22;10388;52.314;7.938;2022-10-22T03:59:47;10.50;99.90
20459;DHT22;10388;52.314;7.938;2022-10-22T04:02:47;10.40;99.90
20459;DHT22;10388;52.314;7.938;2022-10-22T04:06:05;10.30;99.90
20459;DHT22;10388;52.314;7.938;2022-10-22T04:09:05;10.30;99.90
20459;DHT22;10388;52.314;7.938;2022-10-22T04:11:55;10.20;99.90
20459;DHT22;10388;52.314;7.938;2022-10-22T04:18:31;10.20;99.90
20459;DHT22;10388;52.314;7.938;2022-10-22T04:21:19;10.10;99.90
20459;DHT22;10388;52.314;7.938;2022-10-22T04:24:43;10.10;99.90
20459;DHT22;10388;52.314;7.938;2022-10-22T04:28:11;10.00;99.90
20459;DHT22;10388;52.314;7.938;2022-10-22T04:39:55;9.80;99.90
20459;DHT22;10388;52.314;7.938;2022-10-22T04:43:02;9.80;99.90
20459;DHT22;10388;52.314;7.938;2022-10-22T04:45:59;9.70;99.90
20459;DHT22;10388;52.314;7.938;2022-10-22T04:52:27;9.70;99.90
20459;DHT22;10388;52.314;7.938;2022-10-22T04:55:24;9.60;99.90
20459;DHT22;10388;52.314;7.938;2022-10-22T04:58:17;9.50;99.90
20459;DHT22;10388;52.314;7.938;2022-10-22T05:03:49;9.40;99.90
20459;DHT22;10388;52.314;7.938;2022-10-22T05:06:47;9.40;99.90
20459;DHT22;10388;52.314;7.938;2022-10-22T05:10:07;9.40;99.90
20459;DHT22;10388;52.314;7.938;2022-10-22T05:23:04;9.20;99.90
20459;DHT22;10388;52.314;7.938;2022-10-22T05:25:45;9.20;99.90
20459;DHT22;10388;52.314;7.938;2022-10-22T05:28:48;9.20;99.90
20459;DHT22;10388;52.314;7.938;2022-10-22T05:31:49;9.10;99.90
20459;DHT22;10388;52.314;7.938;2022-10-22T05:35:04;9.10;99.90
20459;DHT22;10388;52.314;7.938;2022-10-22T05:38:20;9.10;99.90
20459;DHT22;10388;52.314;7.938;2022-10-22T05:41:28;9.10;99.90
20459;DHT22;10388;52.314;7.938;2022-10-22T05:44:42;9.00;99.90
20459;DHT22;10388;52.314;7.938;2022-10-22T05:47:48;8.90;99.90
20459;DHT22;10388;52.314;7.938;2022-10-22T05:50:39;8.90;99.90
20459;DHT22;10388;52.314;7.938;2022-10-22T05:59:54;8.90;99.90
20459;DHT22;10388;52.314;7.938;2022-10-22T06:09:42;8.70;99.90
20459;DHT22;10388;52.314;7.938;2022-10-22T06:12:31;8.70;99.90
20459;DHT22;10388;52.314;7.938;2022-10-22T06:15:23;8.70;99.90
20459;DHT22;10388;52.314;7.938;2022-10-22T06:18:14;8.70;99.90
20459;DHT22;10388;52.314;7.938;2022-10-22T06:21:10;8.70;99.90
20459;DHT22;10388;52.314;7.938;2022-10-22T06:23:42;8.70;99.90
20459;DHT22;10388;52.314;7.938;2022-10-22T06:26:13;8.70;99.90
20459;DHT22;10388;52.314;7.938;2022-10-22T06:28:44;8.70;99.90
20459;DHT22;10388;52.314;7.938;2022-10-22T06:31:15;8.70;99.90
20459;DHT22;10388;52.314;7.938;2022-10-22T06:33:46;8.70;99.90
20459;DHT22;10388;52.314;7.938;2022-10-22T06:36:21;8.80;99.90
20459;DHT22;10388;52.314;7.938;2022-10-22T06:38:53;8.90;99.90
20459;DHT22;10388;52.314;7.938;2022-10-22T06:41:24;8.90;99.90
20459;DHT22;10388;52.314;7.938;2022-10-22T06:43:55;8.90;99.90
20459;DHT22;10388;52.314;7.938;2022-10-22T06:46:26;8.90;99.90
20459;DHT22;10388;52.314;7.938;2022-10-22T06:48:59;8.90;99.90
20459;DHT22;10388;52.314;7.938;2022-10-22T06:51:31;8.90;99.90
20459;DHT22;10388;52.314;7.938;2022-10-22T06:54:01;8.90;99.90
20459;DHT22;10388;52.314;7.938;2022-10-22T06:56:32;9.00;99.90
20459;DHT22;10388;52.314;7.938;2022-10-22T06:59:03;9.00;99.90
20459;DHT22;10388;52.314;7.938;2022-10-22T07:01:35;9.00;99.90
20459;DHT22;10388;52.314;7.938;2022-10-22T07:04:05;9.10;99.90
20459;DHT22;10388;52.314;7.938;2022-10-22T07:06:38;9.10;99.90
20459;DHT22;10388;52.314;7.938;2022-10-22T07:09:09;9.20;99.90
20459;DHT22;10388;52.314;7.938;2022-10-22T07:11:42;9.30;99.90
20459;DHT22;10388;52.314;7.938;2022-10-22T07:14:13;9.30;99.90
20459;DHT22;10388;52.314;7.938;2022-10-22T07:16:44;9.40;99.90
20459;DHT22;10388;52.314;7.938;2022-10-22T07:19:17;9.60;99.90
20459;DHT22;10388;52.314;7.938;2022-10-22T07:21:47;9.70;99.90
20459;DHT22;10388;52.314;7.938;2022-10-22T07:24:18;9.80;99.90
20459;DHT22;10388;52.314;7.938;2022-10-22T07:26:49;9.90;99.90
20459;DHT22;10388;52.314;7.938;2022-10-22T07:29:19;10.00;99.90
20459;DHT22;10388;52.314;7.938;2022-10-22T07:31:50;10.10;99.90
20459;DHT22;10388;52.314;7.938;2022-10-22T07:34:20;10.30;99.90
20459;DHT22;10388;52.314;7.938;2022-10-22T07:36:57;10.70;99.90
20459;DHT22;10388;52.314;7.938;2022-10-22T07:39:28;11.10;99.90
20459;DHT22;10388;52.314;7.938;2022-10-22T07:41:59;11.40;99.90
20459;DHT22;10388;52.314;7.938;2022-10-22T07:44:29;11.60;99.90
20459;DHT22;10388;52.314;7.938;2022-10-22T07:47:00;11.90;99.90
20459;DHT22;10388;52.314;7.938;2022-10-22T07:49:31;12.10;99.90
20459;DHT22;10388;52.314;7.938;2022-10-22T07:52:02;12.30;99.90
20459;DHT22;10388;52.314;7.938;2022-10-22T07:54:32;12.40;99.90
20459;DHT22;10388;52.314;7.938;2022-10-22T07:57:03;12.60;99.90
20459;DHT22;10388;52.314;7.938;2022-10-22T07:59:33;12.80;99.90
20459;DHT22;10388;52.314;7.938;2022-10-22T08:02:04;12.80;99.90
20459;DHT22;10388;52.314;7.938;2022-10-22T08:04:35;13.00;99.90
20459;DHT22;10388;52.314;7.938;2022-10-22T08:07:05;13.10;99.90
20459;DHT22;10388;52.314;7.938;2022-10-22T08:09:36;13.30;99.90
20459;DHT22;10388;52.314;7.938;2022-10-22T08:12:07;13.40;99.90
20459;DHT22;10388;52.314;7.938;2022-10-22T08:14:37;13.50;99.90
20459;DHT22;10388;52.314;7.938;2022-10-22T08:17:08;13.60;99.90
20459;DHT22;10388;52.314;7.938;2022-10-22T08:19:38;13.50;99.90
20459;DHT22;10388;52.314;7.938;2022-10-22T08:22:09;13.60;99.90
20459;DHT22;10388;52.314;7.938;2022-10-22T08:24:40;13.60;99.90
20459;DHT22;10388;52.314;7.938;2022-10-22T08:27:10;13.60;99.90
20459;DHT22;10388;52.314;7.938;2022-10-22T08:29:41;13.50;99.90
20459;DHT22;10388;52.314;7.938;2022-10-22T08:32:11;13.60;99.90
20459;DHT22;10388;52.314;7.938;2022-10-22T08:34:42;13.80;99.90
20459;DHT22;10388;52.314;7.938;2022-10-22T08:37:13;14.00;99.90
20459;DHT22;10388;52.314;7.938;2022-10-22T08:39:46;14.10;99.90
20459;DHT22;10388;52.314;7.938;2022-10-22T08:42:34;14.30;99.90
20459;DHT22;10388;52.314;7.938;2022-10-22T08:48:14;14.40;99.90
20459;DHT22;10388;52.314;7.938;2022-10-22T08:50:51;14.40;99.90
20459;DHT22;10388;52.314;7.938;2022-10-22T08:53:47;14.50;99.90
20459;DHT22;10388;52.314;7.938;2022-10-22T08:56:22;14.60;99.90
20459;DHT22;10388;52.314;7.938;2022-10-22T08:59:02;14.70;99.90
20459;DHT22;10388;52.314;7.938;2022-10-22T09:01:43;14.80;99.90
20459;DHT22;10388;52.314;7.938;2022-10-22T09:04:38;14.90;99.90
20459;DHT22;10388;52.314;7.938;2022-10-22T09:07:12;15.00;99.90
20459;DHT22;10388;52.314;7.938;2022-10-22T09:09:48;15.00;99.90
20459;DHT22;10388;52.314;7.938;2022-10-22T09:12:21;14.90;99.90
20459;DHT22;10388;52.314;7.938;2022-10-22T09:14:54;14.80;99.90
20459;DHT22;10388;52.314;7.938;2022-10-22T09:17:58;14.80;99.90
20459;DHT22;10388;52.314;7.938;2022-10-22T09:20:44;14.90;99.90
20459;DHT22;10388;52.314;7.938;2022-10-22T09:23:44;15.00;99.90
20459;DHT22;10388;52.314;7.938;2022-10-22T09:26:18;15.10;99.90
20459;DHT22;10388;52.314;7.938;2022-10-22T09:28:50;15.20;99.90
20459;DHT22;10388;52.314;7.938;2022-10-22T09:31:42;15.20;99.90
20459;DHT22;10388;52.314;7.938;2022-10-22T09:45:23;15.40;99.90
20459;DHT22;10388;52.314;7.938;2022-10-22T09:48:29;15.60;99.90
20459;DHT22;10388;52.314;7.938;2022-10-22T09:53:47;15.50;99.90
20459;DHT22;10388;52.314;7.938;2022-10-22T09:56:36;15.50;99.90
20459;DHT22;10388;52.314;7.938;2022-10-22T09:59:16;15.80;99.90
20459;DHT22;10388;52.314;7.938;2022-10-22T10:02:21;15.90;99.90
20459;DHT22;10388;52.314;7.938;2022-10-22T10:04:54;15.90;99.90
20459;DHT22;10388;52.314;7.938;2022-10-22T10:07:29;15.90;99.90
20459;DHT22;10388;52.314;7.938;2022-10-22T10:10:01;16.00;99.90
20459;DHT22;10388;52.314;7.938;2022-10-22T10:12:50;16.00;99.90
20459;DHT22;10388;52.314;7.938;2022-10-22T10:24:18;16.10;99.90
20459;DHT22;10388;52.314;7.938;2022-10-22T10:27:04;16.10;99.90
20459;DHT22;10388;52.314;7.938;2022-10-22T10:32:35;16.00;99.90
20459;DHT22;10388;52.314;7.938;2022-10-22T10:35:26;16.00;99.90
20459;DHT22;10388;52.314;7.938;2022-10-22T10:40:43;16.00;99.90
20459;DHT22;10388;52.314;7.938;2022-10-22T10:52:13;16.00;99.90
20459;DHT22;10388;52.314;7.938;2022-10-22T10:54:52;16.00;99.90
20459;DHT22;10388;52.314;7.938;2022-10-22T11:07:46;16.20;99.90
20459;DHT22;10388;52.314;7.938;2022-10-22T11:10:51;16.20;99.90
20459;DHT22;10388;52.314;7.938;2022-10-22T11:13:48;16.10;99.90
20459;DHT22;10388;52.314;7.938;2022-10-22T11:25:22;16.10;99.90
20459;DHT22;10388;52.314;7.938;2022-10-22T11:28:08;16.00;99.90
20459;DHT22;10388;52.314;7.938;2022-10-22T11:30:42;16.00;99.90
20459;DHT22;10388;52.314;7.938;2022-10-22T11:33:19;16.10;99.90
20459;DHT22;10388;52.314;7.938;2022-10-22T11:36:03;16.10;99.90
20459;DHT22;10388;52.314;7.938;2022-10-22T11:38:34;16.10;99.90
20459;DHT22;10388;52.314;7.938;2022-10-22T11:41:22;16.20;99.90
20459;DHT22;10388;52.314;7.938;2022-10-22T11:46:30;16.40;99.90
20459;DHT22;10388;52.314;7.938;2022-10-22T11:49:27;16.40;99.90
20459;DHT22;10388;52.314;7.938;2022-10-22T11:58:41;16.40;99.90
20459;DHT22;10388;52.314;7.938;2022-10-22T12:06:28;16.30;99.90
20459;DHT22;10388;52.314;7.938;2022-10-22T12:09:00;16.30;99.90
20459;DHT22;10388;52.314;7.938;2022-10-22T12:11:45;16.30;99.90
20459;DHT22;10388;52.314;7.938;2022-10-22T12:14:23;16.30;99.90
20459;DHT22;10388;52.314;7.938;2022-10-22T12:17:09;16.30;99.90
20459;DHT22;10388;52.314;7.938;2022-10-22T12:19:41;16.30;99.90
20459;DHT22;10388;52.314;7.938;2022-10-22T12:22:21;16.20;99.90
20459;DHT22;10388;52.314;7.938;2022-10-22T12:24:54;16.20;99.90
20459;DHT22;10388;52.314;7.938;2022-10-22T12:27:25;16.20;99.90
20459;DHT22;10388;52.314;7.938;2022-10-22T12:29:58;16.20;99.90
20459;DHT22;10388;52.314;7.938;2022-10-22T12:32:38;16.20;99.90
20459;DHT22;10388;52.314;7.938;2022-10-22T12:35:19;16.20;99.90
20459;DHT22;10388;52.314;7.938;2022-10-22T12:38:02;16.20;99.90
20459;DHT22;10388;52.314;7.938;2022-10-22T12:40:34;16.20;99.90
20459;DHT22;10388;52.314;7.938;2022-10-22T12:43:17;16.10;99.90
20459;DHT22;10388;52.314;7.938;2022-10-22T12:45:49;16.10;99.90
20459;DHT22;10388;52.314;7.938;2022-10-22T12:48:29;16.00;99.90
20459;DHT22;10388;52.314;7.938;2022-10-22T12:51:01;16.00;99.90
20459;DHT22;10388;52.314;7.938;2022-10-22T12:53:35;16.10;99.90
20459;DHT22;10388;52.314;7.938;2022-10-22T12:56:12;16.20;99.90
20459;DHT22;10388;52.314;7.938;2022-10-22T12:59:00;16.30;99.90
20459;DHT22;10388;52.314;7.938;2022-10-22T13:01:36;16.30;99.90
20459;DHT22;10388;52.314;7.938;2022-10-22T13:04:21;16.20;99.90
20459;DHT22;10388;52.314;7.938;2022-10-22T13:07:04;16.10;99.90
20459;DHT22;10388;52.314;7.938;2022-10-22T13:09:47;16.00;99.90
20459;DHT22;10388;52.314;7.938;2022-10-22T13:12:33;15.90;99.90
20459;DHT22;10388;52.314;7.938;2022-10-22T13:23:25;15.60;99.90
20459;DHT22;10388;52.314;7.938;2022-10-22T13:26:14;15.70;99.90
20459;DHT22;10388;52.314;7.938;2022-10-22T13:28:51;15.70;99.90
20459;DHT22;10388;52.314;7.938;2022-10-22T13:31:30;15.60;99.90
20459;DHT22;10388;52.314;7.938;2022-10-22T13:34:14;15.60;99.90
20459;DHT22;10388;52.314;7.938;2022-10-22T13:36:47;15.50;99.90
20459;DHT22;10388;52.314;7.938;2022-10-22T13:39:19;15.50;99.90
20459;DHT22;10388;52.314;7.938;2022-10-22T13:41:50;15.60;99.90
20459;DHT22;10388;52.314;7.938;2022-10-22T13:44:21;15.60;99.90
20459;DHT22;10388;52.314;7.938;2022-10-22T13:46:51;15.70;99.90
20459;DHT22;10388;52.314;7.938;2022-10-22T13:49:22;15.80;99.90
20459;DHT22;10388;52.314;7.938;2022-10-22T13:51:53;15.90;99.90
20459;DHT22;10388;52.314;7.938;2022-10-22T13:54:23;15.90;99.90
20459;DHT22;10388;52.314;7.938;2022-10-22T13:56:54;16.00;99.90
20459;DHT22;10388;52.314;7.938;2022-10-22T13:59:25;16.00;99.90
20459;DHT22;10388;52.314;7.938;2022-10-22T14:01:55;16.00;99.90
20459;DHT22;10388;52.314;7.938;2022-10-22T14:04:26;16.10;99.90
20459;DHT22;10388;52.314;7.938;2022-10-22T14:06:56;16.20;99.90
20459;DHT22;10388;52.314;7.938;2022-10-22T14:09:27;16.20;99.90
20459;DHT22;10388;52.314;7.938;2022-10-22T14:11:57;16.00;99.90
20459;DHT22;10388;52.314;7.938;2022-10-22T14:14:30;16.00;99.90
20459;DHT22;10388;52.314;7.938;2022-10-22T14:17:04;16.00;99.90
20459;DHT22;10388;52.314;7.938;2022-10-22T14:19:35;15.90;99.90
20459;DHT22;10388;52.314;7.938;2022-10-22T14:22:11;15.90;99.90
20459;DHT22;10388;52.314;7.938;2022-10-22T14:24:43;15.80;99.90
20459;DHT22;10388;52.314;7.938;2022-10-22T14:27:14;15.80;99.90
20459;DHT22;10388;52.314;7.938;2022-10-22T14:29:45;15.70;99.90
20459;DHT22;10388;52.314;7.938;2022-10-22T14:32:17;15.70;99.90
20459;DHT22;10388;52.314;7.938;2022-10-22T14:34:50;15.60;99.90
20459;DHT22;10388;52.314;7.938;2022-10-22T14:37:21;15.60;99.90
20459;DHT22;10388;52.314;7.938;2022-10-22T14:39:52;15.70;99.90
20459;DHT22;10388;52.314;7.938;2022-10-22T14:42:30;15.70;99.90
20459;DHT22;10388;52.314;7.938;2022-10-22T14:45:01;15.70;99.90
20459;DHT22;10388;52.314;7.938;2022-10-22T14:47:32;15.80;99.90
20459;DHT22;10388;52.314;7.938;2022-10-22T14:50:03;15.80;99.90
20459;DHT22;10388;52.314;7.938;2022-10-22T14:52:34;15.80;99.90
20459;DHT22;10388;52.314;7.938;2022-10-22T14:55:05;15.90;99.90
20459;DHT22;10388;52.314;7.938;2022-10-22T14:57:36;15.90;99.90
20459;DHT22;10388;52.314;7.938;2022-10-22T15:00:11;15.90;99.90
20459;DHT22;10388;52.314;7.938;2022-10-22T15:02:42;15.90;99.90
20459;DHT22;10388;52.314;7.938;2022-10-22T15:05:13;15.90;99.90
20459;DHT22;10388;52.314;7.938;2022-10-22T15:07:44;15.80;99.90
20459;DHT22;10388;52.314;7.938;2022-10-22T15:10:15;15.80;99.90
20459;DHT22;10388;52.314;7.938;2022-10-22T15:12:45;15.70;99.90
20459;DHT22;10388;52.314;7.938;2022-10-22T15:15:16;15.60;99.90
20459;DHT22;10388;52.314;7.938;2022-10-22T15:17:47;15.60;99.90
20459;DHT22;10388;52.314;7.938;2022-10-22T15:20:17;15.60;99.90
20459;DHT22;10388;52.314;7.938;2022-10-22T15:22:48;15.60;99.90
20459;DHT22;10388;52.314;7.938;2022-10-22T15:25:18;15.50;99.90
20459;DHT22;10388;52.314;7.938;2022-10-22T15:27:49;15.50;99.90
20459;DHT22;10388;52.314;7.938;2022-10-22T15:30:19;15.50;99.90
20459;DHT22;10388;52.314;7.938;2022-10-22T15:32:50;15.60;99.90
20459;DHT22;10388;52.314;7.938;2022-10-22T15:35:20;15.50;99.90
20459;DHT22;10388;52.314;7.938;2022-10-22T15:37:51;15.50;99.90
20459;DHT22;10388;52.314;7.938;2022-10-22T15:40:21;15.50;99.90
20459;DHT22;10388;52.314;7.938;2022-10-22T15:42:52;15.50;99.90
20459;DHT22;10388;52.314;7.938;2022-10-22T15:45:22;15.50;99.90
20459;DHT22;10388;52.314;7.938;2022-10-22T15:47:54;15.50;99.90
20459;DHT22;10388;52.314;7.938;2022-10-22T15:50:24;15.40;99.90
20459;DHT22;10388;52.314;7.938;2022-10-22T15:52:56;15.30;99.90
20459;DHT22;10388;52.314;7.938;2022-10-22T15:55:26;15.20;99.90
20459;DHT22;10388;52.314;7.938;2022-10-22T15:57:57;15.10;99.90
20459;DHT22;10388;52.314;7.938;2022-10-22T16:00:27;15.00;99.90
20459;DHT22;10388;52.314;7.938;2022-10-22T16:02:58;15.00;99.90
20459;DHT22;10388;52.314;7.938;2022-10-22T16:05:28;14.90;99.90
20459;DHT22;10388;52.314;7.938;2022-10-22T16:07:59;14.80;99.90
20459;DHT22;10388;52.314;7.938;2022-10-22T16:10:29;14.70;99.90
20459;DHT22;10388;52.314;7.938;2022-10-22T16:13:00;14.70;99.90
20459;DHT22;10388;52.314;7.938;2022-10-22T16:15:30;14.60;99.90
20459;DHT22;10388;52.314;7.938;2022-10-22T16:18:02;14.50;99.90
20459;DHT22;10388;52.314;7.938;2022-10-22T16:20:38;14.50;99.90
20459;DHT22;10388;52.314;7.938;2022-10-22T16:23:08;14.40;99.90
20459;DHT22;10388;52.314;7.938;2022-10-22T16:25:40;14.30;99.90
20459;DHT22;10388;52.314;7.938;2022-10-22T16:28:11;14.20;99.90
20459;DHT22;10388;52.314;7.938;2022-10-22T16:30:41;14.20;99.90
20459;DHT22;10388;52.314;7.938;2022-10-22T16:33:12;14.10;99.90
20459;DHT22;10388;52.314;7.938;2022-10-22T16:35:42;14.00;99.90
20459;DHT22;10388;52.314;7.938;2022-10-22T16:38:13;14.00;99.90
20459;DHT22;10388;52.314;7.938;2022-10-22T16:40:44;13.90;99.90
20459;DHT22;10388;52.314;7.938;2022-10-22T16:43:15;13.90;99.90
20459;DHT22;10388;52.314;7.938;2022-10-22T16:45:49;13.90;99.90
20459;DHT22;10388;52.314;7.938;2022-10-22T16:48:20;13.80;99.90
20459;DHT22;10388;52.314;7.938;2022-10-22T16:50:50;13.80;99.90
20459;DHT22;10388;52.314;7.938;2022-10-22T16:53:21;13.70;99.90
20459;DHT22;10388;52.314;7.938;2022-10-22T16:55:51;13.70;99.90
20459;DHT22;10388;52.314;7.938;2022-10-22T16:58:22;13.60;99.90
20459;DHT22;10388;52.314;7.938;2022-10-22T17:00:52;13.60;99.90
20459;DHT22;10388;52.314;7.938;2022-10-22T17:03:23;13.50;99.90
20459;DHT22;10388;52.314;7.938;2022-10-22T17:05:57;13.40;99.90
20459;DHT22;10388;52.314;7.938;2022-10-22T17:08:27;13.30;99.90
20459;DHT22;10388;52.314;7.938;2022-10-22T17:11:14;13.30;99.90
20459;DHT22;10388;52.314;7.938;2022-10-22T17:13:49;13.30;99.90
20459;DHT22;10388;52.314;7.938;2022-10-22T17:16:23;13.20;99.90
20459;DHT22;10388;52.314;7.938;2022-10-22T17:18:54;13.20;99.90
20459;DHT22;10388;52.314;7.938;2022-10-22T17:21:25;13.20;99.90
20459;DHT22;10388;52.314;7.938;2022-10-22T17:23:55;13.10;99.90
20459;DHT22;10388;52.314;7.938;2022-10-22T17:26:26;13.00;99.90
20459;DHT22;10388;52.314;7.938;2022-10-22T17:28:58;12.90;99.90
20459;DHT22;10388;52.314;7.938;2022-10-22T17:31:31;12.80;99.90
20459;DHT22;10388;52.314;7.938;2022-10-22T17:34:05;12.70;99.90
20459;DHT22;10388;52.314;7.938;2022-10-22T17:36:36;12.70;99.90
20459;DHT22;10388;52.314;7.938;2022-10-22T17:39:07;12.60;99.90
20459;DHT22;10388;52.314;7.938;2022-10-22T17:41:37;12.50;99.90
20459;DHT22;10388;52.314;7.938;2022-10-22T17:44:16;12.40;99.90
20459;DHT22;10388;52.314;7.938;2022-10-22T17:46:46;12.30;99.90
20459;DHT22;10388;52.314;7.938;2022-10-22T17:49:19;12.30;99.90
20459;DHT22;10388;52.314;7.938;2022-10-22T17:51:50;12.20;99.90
20459;DHT22;10388;52.314;7.938;2022-10-22T17:54:20;12.20;99.90
20459;DHT22;10388;52.314;7.938;2022-10-22T17:56:51;12.10;99.90
20459;DHT22;10388;52.314;7.938;2022-10-22T17:59:22;12.00;99.90
20459;DHT22;10388;52.314;7.938;2022-10-22T18:01:52;12.00;99.90
20459;DHT22;10388;52.314;7.938;2022-10-22T18:04:23;12.00;99.90
20459;DHT22;10388;52.314;7.938;2022-10-22T18:06:54;11.90;99.90
20459;DHT22;10388;52.314;7.938;2022-10-22T18:09:25;11.80;99.90
20459;DHT22;10388;52.314;7.938;2022-10-22T18:11:55;11.80;99.90
20459;DHT22;10388;52.314;7.938;2022-10-22T18:14:26;11.70;99.90
20459;DHT22;10388;52.314;7.938;2022-10-22T18:16:57;11.60;99.90
20459;DHT22;10388;52.314;7.938;2022-10-22T18:19:28;11.60;99.90
20459;DHT22;10388;52.314;7.938;2022-10-22T18:21:59;11.50;99.90
20459;DHT22;10388;52.314;7.938;2022-10-22T18:24:30;11.50;99.90
20459;DHT22;10388;52.314;7.938;2022-10-22T18:27:00;11.40;99.90
20459;DHT22;10388;52.314;7.938;2022-10-22T18:29:31;11.30;99.90
20459;DHT22;10388;52.314;7.938;2022-10-22T18:32:02;11.30;99.90
20459;DHT22;10388;52.314;7.938;2022-10-22T18:34:34;11.30;99.90
20459;DHT22;10388;52.314;7.938;2022-10-22T18:37:06;11.20;99.90
20459;DHT22;10388;52.314;7.938;2022-10-22T18:39:37;11.20;99.90
20459;DHT22;10388;52.314;7.938;2022-10-22T18:42:07;11.20;99.90
20459;DHT22;10388;52.314;7.938;2022-10-22T18:44:38;11.10;99.90
20459;DHT22;10388;52.314;7.938;2022-10-22T18:47:09;11.10;99.90
20459;DHT22;10388;52.314;7.938;2022-10-22T18:49:41;11.00;99.90
20459;DHT22;10388;52.314;7.938;2022-10-22T18:52:11;10.90;99.90
20459;DHT22;10388;52.314;7.938;2022-10-22T18:54:42;10.90;99.90
20459;DHT22;10388;52.314;7.938;2022-10-22T18:57:12;10.90;99.90
20459;DHT22;10388;52.314;7.938;2022-10-22T18:59:43;10.80;99.90
20459;DHT22;10388;52.314;7.938;2022-10-22T19:02:14;10.80;99.90
20459;DHT22;10388;52.314;7.938;2022-10-22T19:04:46;10.70;99.90
20459;DHT22;10388;52.314;7.938;2022-10-22T19:07:17;10.70;99.90
20459;DHT22;10388;52.314;7.938;2022-10-22T19:09:47;10.70;99.90
20459;DHT22;10388;52.314;7.938;2022-10-22T19:12:18;10.60;99.90
20459;DHT22;10388;52.314;7.938;2022-10-22T19:14:50;10.60;99.90
20459;DHT22;10388;52.314;7.938;2022-10-22T19:17:22;10.50;99.90
20459;DHT22;10388;52.314;7.938;2022-10-22T19:19:53;10.40;99.90
20459;DHT22;10388;52.314;7.938;2022-10-22T19:22:24;10.40;99.90
20459;DHT22;10388;52.314;7.938;2022-10-22T19:24:54;10.40;99.90
20459;DHT22;10388;52.314;7.938;2022-10-22T19:27:25;10.40;99.90
20459;DHT22;10388;52.314;7.938;2022-10-22T19:29:56;10.30;99.90
20459;DHT22;10388;52.314;7.938;2022-10-22T19:32:26;10.20;99.90
20459;DHT22;10388;52.314;7.938;2022-10-22T19:34:57;10.20;99.90
20459;DHT22;10388;52.314;7.938;2022-10-22T19:37:27;10.10;99.90
20459;DHT22;10388;52.314;7.938;2022-10-22T19:39:58;10.10;99.90
20459;DHT22;10388;52.314;7.938;2022-10-22T19:42:28;10.10;99.90
20459;DHT22;10388;52.314;7.938;2022-10-22T19:44:59;10.10;99.90
20459;DHT22;10388;52.314;7.938;2022-10-22T19:47:30;10.00;99.90
20459;DHT22;10388;52.314;7.938;2022-10-22T19:50:00;10.00;99.90
20459;DHT22;10388;52.314;7.938;2022-10-22T19:52:31;9.90;99.90
20459;DHT22;10388;52.314;7.938;2022-10-22T19:55:02;9.90;99.90
20459;DHT22;10388;52.314;7.938;2022-10-22T19:57:33;9.90;99.90
20459;DHT22;10388;52.314;7.938;2022-10-22T20:00:04;9.90;99.90
20459;DHT22;10388;52.314;7.938;2022-10-22T20:02:35;9.80;99.90
20459;DHT22;10388;52.314;7.938;2022-10-22T20:05:06;9.70;99.90
20459;DHT22;10388;52.314;7.938;2022-10-22T20:07:37;9.70;99.90
20459;DHT22;10388;52.314;7.938;2022-10-22T20:10:08;9.70;99.90
20459;DHT22;10388;52.314;7.938;2022-10-22T20:12:38;9.70;99.90
20459;DHT22;10388;52.314;7.938;2022-10-22T20:15:09;9.60;99.90
20459;DHT22;10388;52.314;7.938;2022-10-22T20:17:39;9.60;99.90
20459;DHT22;10388;52.314;7.938;2022-10-22T20:20:10;9.60;99.90